sensor_id;sensor_type;location;lat;lon;timestamp;pressure;altitude;pressure_sealevel;temperature;humidity
8398;BME280;4236;54.504;9.588;2022-12-18T00:01:27;102760.19;;;-6.52;100.00
8398;BME280;4236;54.504;9.588;2022-12-18T00:03:55;102753.28;;;-6.53;100.00
8398;BME280;4236;54.504;9.588;2022-12-18T00:06:25;102774.03;;;-6.52;100.00
8398;BME280;4236;54.504;9.588;2022-12-18T00:08:55;102770.50;;;-6.49;100.00
8398;BME280;4236;54.504;9.588;2022-12-18T00:11:25;102771.31;;;-6.47;100.00
8398;BME280;4236;54.504;9.588;2022-12-18T00:13:56;102772.09;;;-6.44;100.00
8398;BME280;4236;54.504;9.588;2022-12-18T00:16:25;102758.22;;;-6.43;100.00
8398;BME280;4236;54.504;9.588;2022-12-18T00:18:55;102749.50;;;-6.40;100.00
8398;BME280;4236;54.504;9.588;2022-12-18T00:21:23;102754.69;;;-6.40;100.00
8398;BME280;4236;54.504;9.588;2022-12-18T00:23:51;102750.28;;;-6.37;100.00
8398;BME280;4236;54.504;9.588;2022-12-18T00:26:20;102771.00;;;-6.35;100.00
8398;BME280;4236;54.504;9.588;2022-12-18T00:28:50;102757.06;;;-6.33;100.00
8398;BME280;4236;54.504;9.588;2022-12-18T00:31:20;102760.50;;;-6.31;100.00
8398;BME280;4236;54.504;9.588;2022-12-18T00:33:48;102763.97;;;-6.32;100.00
8398;BME280;4236;54.504;9.588;2022-12-18T00:36:22;102767.44;;;-6.31;100.00
8398;BME280;4236;54.504;9.588;2022-12-18T00:38:50;102769.19;;;-6.32;100.00
8398;BME280;4236;54.504;9.588;2022-12-18T00:41:18;102767.47;;;-6.33;100.00
8398;BME280;4236;54.504;9.588;2022-12-18T00:44:01;102764.91;;;-6.34;100.00
8398;BME280;4236;54.504;9.588;2022-12-18T00:46:29;102773.56;;;-6.34;100.00
8398;BME280;4236;54.504;9.588;2022-12-18T00:48:57;102775.31;;;-6.34;100.00
8398;BME280;4236;54.504;9.588;2022-12-18T00:51:25;102777.03;;;-6.35;100.00
8398;BME280;4236;54.504;9.588;2022-12-18T00:53:53;102771.84;;;-6.35;100.00
8398;BME280;4236;54.504;9.588;2022-12-18T00:56:21;102767.53;;;-6.36;100.00
8398;BME280;4236;54.504;9.588;2022-12-18T00:58:49;102760.59;;;-6.35;100.00
8398;BME280;4236;54.504;9.588;2022-12-18T01:01:18;102767.47;;;-6.33;100.00
8398;BME280;4236;54.504;9.588;2022-12-18T01:03:47;102765.78;;;-6.34;100.00
8398;BME280;4236;54.504;9.588;2022-12-18T01:06:16;102763.09;;;-6.31;100.00
8398;BME280;4236;54.504;9.588;2022-12-18T01:08:44;102771.75;;;-6.30;100.00
8398;BME280;4236;54.504;9.588;2022-12-18T01:11:14;102769.16;;;-6.30;100.00
8398;BME280;4236;54.504;9.588;2022-12-18T01:13:43;102768.25;;;-6.29;100.00
8398;BME280;4236;54.504;9.588;2022-12-18T01:16:11;102759.56;;;-6.28;100.00
8398;BME280;4236;54.504;9.588;2022-12-18T01:18:40;102767.31;;;-6.27;100.00
8398;BME280;4236;54.504;9.588;2022-12-18T01:21:09;102770.75;;;-6.26;100.00
8398;BME280;4236;54.504;9.588;2022-12-18T01:23:37;102767.22;;;-6.24;100.00
8398;BME280;4236;54.504;9.588;2022-12-18T01:26:07;102768.88;;;-6.21;100.00
8398;BME280;4236;54.504;9.588;2022-12-18T01:28:35;102769.72;;;-6.19;100.00
8398;BME280;4236;54.504;9.588;2022-12-18T01:31:12;102774.81;;;-6.16;100.00
8398;BME280;4236;54.504;9.588;2022-12-18T01:33:42;102772.22;;;-6.16;100.00
8398;BME280;4236;54.504;9.588;2022-12-18T01:36:15;102776.47;;;-6.13;100.00
8398;BME280;4236;54.504;9.588;2022-12-18T01:38:43;102780.81;;;-6.14;100.00
8398;BME280;4236;54.504;9.588;2022-12-18T01:41:11;102779.97;;;-6.14;100.00
8398;BME280;4236;54.504;9.588;2022-12-18T01:43:44;102778.19;;;-6.12;100.00
8398;BME280;4236;54.504;9.588;2022-12-18T01:46:12;102772.16;;;-6.13;100.00
8398;BME280;4236;54.504;9.588;2022-12-18T01:48:42;102789.41;;;-6.12;100.00
8398;BME280;4236;54.504;9.588;2022-12-18T01:51:10;102795.53;;;-6.14;100.00
8398;BME280;4236;54.504;9.588;2022-12-18T01:53:40;102793.88;;;-6.15;100.00
8398;BME280;4236;54.504;9.588;2022-12-18T01:56:12;102799.88;;;-6.15;100.00
8398;BME280;4236;54.504;9.588;2022-12-18T01:58:46;102806.84;;;-6.15;100.00
8398;BME280;4236;54.504;9.588;2022-12-18T02:01:16;102799.97;;;-6.18;100.00
8398;BME280;4236;54.504;9.588;2022-12-18T02:03:46;102802.63;;;-6.20;100.00
8398;BME280;4236;54.504;9.588;2022-12-18T02:06:16;102808.75;;;-6.24;100.00
8398;BME280;4236;54.504;9.588;2022-12-18T02:08:58;102810.56;;;-6.26;100.00
8398;BME280;4236;54.504;9.588;2022-12-18T02:11:38;102821.81;;;-6.27;100.00
8398;BME280;4236;54.504;9.588;2022-12-18T02:14:17;102816.69;;;-6.28;100.00
8398;BME280;4236;54.504;9.588;2022-12-18T02:16:51;102819.28;;;-6.28;100.00
8398;BME280;4236;54.504;9.588;2022-12-18T02:19:45;102817.56;;;-6.29;100.00
8398;BME280;4236;54.504;9.588;2022-12-18T02:22:24;102818.41;;;-6.29;100.00
8398;BME280;4236;54.504;9.588;2022-12-18T02:25:01;102817.53;;;-6.28;100.00
8398;BME280;4236;54.504;9.588;2022-12-18T02:27:35;102805.38;;;-6.27;100.00
8398;BME280;4236;54.504;9.588;2022-12-18T02:30:06;102803.69;;;-6.28;100.00
8398;BME280;4236;54.504;9.588;2022-12-18T02:32:38;102808.91;;;-6.28;100.00
8398;BME280;4236;54.504;9.588;2022-12-18T02:35:10;102796.00;;;-6.31;100.00
8398;BME280;4236;54.504;9.588;2022-12-18T02:37:42;102797.72;;;-6.32;100.00
8398;BME280;4236;54.504;9.588;2022-12-18T02:40:11;102803.78;;;-6.31;100.00
8398;BME280;4236;54.504;9.588;2022-12-18T02:42:42;102792.50;;;-6.30;100.00
8398;BME280;4236;54.504;9.588;2022-12-18T02:45:10;102794.19;;;-6.28;100.00
8398;BME280;4236;54.504;9.588;2022-12-18T02:47:40;102794.13;;;-6.26;100.00
8398;BME280;4236;54.504;9.588;2022-12-18T02:50:13;102793.25;;;-6.25;100.00
8398;BME280;4236;54.504;9.588;2022-12-18T02:52:49;102797.50;;;-6.23;100.00
8398;BME280;4236;54.504;9.588;2022-12-18T02:55:28;102792.25;;;-6.21;100.00
8398;BME280;4236;54.504;9.588;2022-12-18T02:58:04;102794.91;;;-6.24;100.00
8398;BME280;4236;54.504;9.588;2022-12-18T03:00:37;102795.78;;;-6.24;100.00
8398;BME280;4236;54.504;9.588;2022-12-18T03:03:09;102791.53;;;-6.26;100.00
8398;BME280;4236;54.504;9.588;2022-12-18T03:05:42;102799.31;;;-6.26;100.00
8398;BME280;4236;54.504;9.588;2022-12-18T03:08:14;102814.97;;;-6.29;100.00
8398;BME280;4236;54.504;9.588;2022-12-18T03:10:49;102818.47;;;-6.30;100.00
8398;BME280;4236;54.504;9.588;2022-12-18T03:13:24;102828.88;;;-6.32;100.00
8398;BME280;4236;54.504;9.588;2022-12-18T03:15:55;102829.75;;;-6.33;100.00
8398;BME280;4236;54.504;9.588;2022-12-18T03:18:28;102830.69;;;-6.35;100.00
8398;BME280;4236;54.504;9.588;2022-12-18T03:20:59;102822.97;;;-6.37;100.00
8398;BME280;4236;54.504;9.588;2022-12-18T03:23:36;102820.38;;;-6.37;100.00
8398;BME280;4236;54.504;9.588;2022-12-18T03:26:10;102818.63;;;-6.36;100.00
8398;BME280;4236;54.504;9.588;2022-12-18T03:28:42;102818.72;;;-6.39;100.00
8398;BME280;4236;54.504;9.588;2022-12-18T03:31:12;102818.72;;;-6.41;100.00
8398;BME280;4236;54.504;9.588;2022-12-18T03:33:44;102815.25;;;-6.40;100.00
8398;BME280;4236;54.504;9.588;2022-12-18T03:36:14;102805.72;;;-6.39;100.00
8398;BME280;4236;54.504;9.588;2022-12-18T03:38:42;102800.53;;;-6.39;100.00
8398;BME280;4236;54.504;9.588;2022-12-18T03:41:15;102798.84;;;-6.42;100.00
8398;BME280;4236;54.504;9.588;2022-12-18T03:43:49;102794.59;;;-6.44;100.00
8398;BME280;4236;54.504;9.588;2022-12-18T03:46:26;102797.19;;;-6.44;100.00
8398;BME280;4236;54.504;9.588;2022-12-18T03:48:59;102799.84;;;-6.47;100.00
8398;BME280;4236;54.504;9.588;2022-12-18T03:51:36;102806.84;;;-6.49;100.00
8398;BME280;4236;54.504;9.588;2022-12-18T03:54:08;102805.16;;;-6.52;100.00
8398;BME280;4236;54.504;9.588;2022-12-18T03:56:40;102814.63;;;-6.51;100.00
8398;BME280;4236;54.504;9.588;2022-12-18T03:59:11;102812.97;;;-6.52;100.00
8398;BME280;4236;54.504;9.588;2022-12-18T04:01:42;102816.44;;;-6.53;100.00
8398;BME280;4236;54.504;9.588;2022-12-18T04:04:12;102825.94;;;-6.53;100.00
8398;BME280;4236;54.504;9.588;2022-12-18T04:06:42;102820.75;;;-6.53;100.00
8398;BME280;4236;54.504;9.588;2022-12-18T04:09:11;102829.53;;;-6.57;100.00
8398;BME280;4236;54.504;9.588;2022-12-18T04:11:39;102825.22;;;-6.58;100.00
8398;BME280;4236;54.504;9.588;2022-12-18T04:14:08;102827.88;;;-6.61;100.00
8398;BME280;4236;54.504;9.588;2022-12-18T04:16:44;102825.31;;;-6.63;100.00
8398;BME280;4236;54.504;9.588;2022-12-18T04:19:12;102828.84;;;-6.65;100.00
8398;BME280;4236;54.504;9.588;2022-12-18T04:21:39;102834.94;;;-6.66;100.00
8398;BME280;4236;54.504;9.588;2022-12-18T04:24:07;102837.56;;;-6.68;100.00
8398;BME280;4236;54.504;9.588;2022-12-18T04:26:35;102854.91;;;-6.70;100.00
8398;BME280;4236;54.504;9.588;2022-12-18T04:29:02;102851.50;;;-6.72;100.00
8398;BME280;4236;54.504;9.588;2022-12-18T04:31:30;102851.53;;;-6.74;100.00
8398;BME280;4236;54.504;9.588;2022-12-18T04:33:59;102859.31;;;-6.74;100.00
8398;BME280;4236;54.504;9.588;2022-12-18T04:36:28;102855.03;;;-6.76;100.00
8398;BME280;4236;54.504;9.588;2022-12-18T04:38:56;102861.91;;;-6.74;100.00
8398;BME280;4236;54.504;9.588;2022-12-18T04:41:23;102860.19;;;-6.75;100.00
8398;BME280;4236;54.504;9.588;2022-12-18T04:43:51;102868.88;;;-6.76;100.00
8398;BME280;4236;54.504;9.588;2022-12-18T04:46:18;102860.25;;;-6.76;100.00
8398;BME280;4236;54.504;9.588;2022-12-18T04:48:46;102859.38;;;-6.77;100.00
8398;BME280;4236;54.504;9.588;2022-12-18T04:51:15;102851.66;;;-6.78;100.00
8398;BME280;4236;54.504;9.588;2022-12-18T04:53:51;102862.91;;;-6.79;100.00
8398;BME280;4236;54.504;9.588;2022-12-18T04:56:19;102855.13;;;-6.81;100.00
8398;BME280;4236;54.504;9.588;2022-12-18T04:58:47;102862.97;;;-6.82;100.00
8398;BME280;4236;54.504;9.588;2022-12-18T05:01:16;102861.25;;;-6.83;100.00
8398;BME280;4236;54.504;9.588;2022-12-18T05:03:45;102844.88;;;-6.85;100.00
8398;BME280;4236;54.504;9.588;2022-12-18T05:06:12;102853.59;;;-6.88;100.00
8398;BME280;4236;54.504;9.588;2022-12-18T05:08:41;102851.88;;;-6.89;100.00
8398;BME280;4236;54.504;9.588;2022-12-18T05:11:13;102847.56;;;-6.90;100.00
8398;BME280;4236;54.504;9.588;2022-12-18T05:13:42;102840.69;;;-6.92;100.00
8398;BME280;4236;54.504;9.588;2022-12-18T05:16:10;102845.94;;;-6.94;100.00
8398;BME280;4236;54.504;9.588;2022-12-18T05:18:38;102854.59;;;-6.95;100.00
8398;BME280;4236;54.504;9.588;2022-12-18T05:21:06;102858.13;;;-6.97;100.00
8398;BME280;4236;54.504;9.588;2022-12-18T05:23:33;102857.25;;;-6.96;100.00
8398;BME280;4236;54.504;9.588;2022-12-18T05:26:05;102860.72;;;-6.97;100.00
8398;BME280;4236;54.504;9.588;2022-12-18T05:28:35;102863.38;;;-7.00;100.00
8398;BME280;4236;54.504;9.588;2022-12-18T05:31:04;102866.00;;;-7.02;100.00
8398;BME280;4236;54.504;9.588;2022-12-18T05:33:34;102872.06;;;-7.03;100.00
8398;BME280;4236;54.504;9.588;2022-12-18T05:36:04;102873.81;;;-7.03;100.00
8398;BME280;4236;54.504;9.588;2022-12-18T05:38:33;102881.63;;;-7.05;100.00
8398;BME280;4236;54.504;9.588;2022-12-18T05:41:03;102883.38;;;-7.07;100.00
8398;BME280;4236;54.504;9.588;2022-12-18T05:43:33;102888.63;;;-7.08;100.00
8398;BME280;4236;54.504;9.588;2022-12-18T05:46:03;102887.78;;;-7.10;100.00
8398;BME280;4236;54.504;9.588;2022-12-18T05:48:31;102889.63;;;-7.15;100.00
8398;BME280;4236;54.504;9.588;2022-12-18T05:51:04;102893.88;;;-7.13;100.00
8398;BME280;4236;54.504;9.588;2022-12-18T05:53:32;102880.97;;;-7.14;100.00
8398;BME280;4236;54.504;9.588;2022-12-18T05:56:00;102879.19;;;-7.12;100.00
8398;BME280;4236;54.504;9.588;2022-12-18T05:58:31;102882.66;;;-7.13;100.00
8398;BME280;4236;54.504;9.588;2022-12-18T06:01:06;102887.81;;;-7.12;100.00
8398;BME280;4236;54.504;9.588;2022-12-18T06:03:34;102886.09;;;-7.11;100.00
8398;BME280;4236;54.504;9.588;2022-12-18T06:06:02;102878.25;;;-7.10;100.00
8398;BME280;4236;54.504;9.588;2022-12-18T06:08:30;102891.22;;;-7.10;100.00
8398;BME280;4236;54.504;9.588;2022-12-18T06:10:58;102889.50;;;-7.09;100.00
8398;BME280;4236;54.504;9.588;2022-12-18T06:13:25;102892.06;;;-7.08;100.00
8398;BME280;4236;54.504;9.588;2022-12-18T06:15:54;102891.22;;;-7.08;100.00
8398;BME280;4236;54.504;9.588;2022-12-18T06:18:22;102886.88;;;-7.08;100.00
8398;BME280;4236;54.504;9.588;2022-12-18T06:20:54;102879.06;;;-7.06;100.00
8398;BME280;4236;54.504;9.588;2022-12-18T06:23:23;102883.38;;;-7.05;100.00
8398;BME280;4236;54.504;9.588;2022-12-18T06:25:50;102884.25;;;-7.06;100.00
8398;BME280;4236;54.504;9.588;2022-12-18T06:28:18;102884.31;;;-7.09;100.00
8398;BME280;4236;54.504;9.588;2022-12-18T06:30:47;102895.53;;;-7.09;100.00
8398;BME280;4236;54.504;9.588;2022-12-18T06:33:16;102896.34;;;-7.07;100.00
8398;BME280;4236;54.504;9.588;2022-12-18T06:35:44;102898.94;;;-7.05;100.00
8398;BME280;4236;54.504;9.588;2022-12-18T06:38:12;102906.72;;;-7.05;100.00
8398;BME280;4236;54.504;9.588;2022-12-18T06:40:39;102907.59;;;-7.06;100.00
8398;BME280;4236;54.504;9.588;2022-12-18T06:43:07;102911.03;;;-7.06;100.00
8398;BME280;4236;54.504;9.588;2022-12-18T06:45:35;102918.00;;;-7.08;100.00
8398;BME280;4236;54.504;9.588;2022-12-18T06:48:03;102922.28;;;-7.07;100.00
8398;BME280;4236;54.504;9.588;2022-12-18T06:50:31;102923.13;;;-7.05;100.00
8398;BME280;4236;54.504;9.588;2022-12-18T06:52:59;102928.25;;;-7.03;100.00
8398;BME280;4236;54.504;9.588;2022-12-18T06:55:27;102936.91;;;-7.04;100.00
8398;BME280;4236;54.504;9.588;2022-12-18T06:57:56;102932.59;;;-7.04;100.00
8398;BME280;4236;54.504;9.588;2022-12-18T07:00:23;102930.91;;;-7.06;100.00
8398;BME280;4236;54.504;9.588;2022-12-18T07:02:51;102935.25;;;-7.07;100.00
8398;BME280;4236;54.504;9.588;2022-12-18T07:05:19;102936.16;;;-7.08;100.00
8398;BME280;4236;54.504;9.588;2022-12-18T07:07:48;102942.22;;;-7.10;100.00
8398;BME280;4236;54.504;9.588;2022-12-18T07:10:15;102952.59;;;-7.10;100.00
8398;BME280;4236;54.504;9.588;2022-12-18T07:12:43;102956.13;;;-7.13;100.00
8398;BME280;4236;54.504;9.588;2022-12-18T07:15:11;102953.53;;;-7.13;100.00
8398;BME280;4236;54.504;9.588;2022-12-18T07:17:39;102957.00;;;-7.14;100.00
8398;BME280;4236;54.504;9.588;2022-12-18T07:20:08;102944.88;;;-7.13;100.00
8398;BME280;4236;54.504;9.588;2022-12-18T07:22:36;102958.75;;;-7.14;100.00
8398;BME280;4236;54.504;9.588;2022-12-18T07:25:07;102954.44;;;-7.15;100.00
8398;BME280;4236;54.504;9.588;2022-12-18T07:27:34;102955.31;;;-7.16;100.00
8398;BME280;4236;54.504;9.588;2022-12-18T07:30:03;102962.25;;;-7.17;100.00
8398;BME280;4236;54.504;9.588;2022-12-18T07:32:31;102960.50;;;-7.16;100.00
8398;BME280;4236;54.504;9.588;2022-12-18T07:34:59;102968.22;;;-7.13;100.00
8398;BME280;4236;54.504;9.588;2022-12-18T07:37:26;102972.53;;;-7.12;100.00
8398;BME280;4236;54.504;9.588;2022-12-18T07:39:54;102971.59;;;-7.10;100.00
8398;BME280;4236;54.504;9.588;2022-12-18T07:42:23;102972.41;;;-7.05;100.00
8398;BME280;4236;54.504;9.588;2022-12-18T07:45:01;102975.81;;;-7.03;100.00
8398;BME280;4236;54.504;9.588;2022-12-18T07:47:34;102981.78;;;-6.99;100.00
8398;BME280;4236;54.504;9.588;2022-12-18T07:50:02;102973.91;;;-6.95;100.00
8398;BME280;4236;54.504;9.588;2022-12-18T07:52:30;102982.50;;;-6.93;100.00
8398;BME280;4236;54.504;9.588;2022-12-18T07:54:58;102984.13;;;-6.87;100.00
8398;BME280;4236;54.504;9.588;2022-12-18T07:57:27;102982.28;;;-6.82;100.00
8398;BME280;4236;54.504;9.588;2022-12-18T08:00:15;102992.59;;;-6.79;100.00
8398;BME280;4236;54.504;9.588;2022-12-18T08:02:43;102993.34;;;-6.74;100.00
8398;BME280;4236;54.504;9.588;2022-12-18T08:05:11;102991.56;;;-6.69;100.00
8398;BME280;4236;54.504;9.588;2022-12-18T08:07:39;102993.09;;;-6.62;100.00
8398;BME280;4236;54.504;9.588;2022-12-18T08:10:07;102992.09;;;-6.55;100.00
8398;BME280;4236;54.504;9.588;2022-12-18T08:12:37;102997.16;;;-6.49;100.00
8398;BME280;4236;54.504;9.588;2022-12-18T08:15:06;102991.72;;;-6.38;100.00
8398;BME280;4236;54.504;9.588;2022-12-18T08:17:33;102991.59;;;-6.32;100.00
8398;BME280;4236;54.504;9.588;2022-12-18T08:20:01;102984.53;;;-6.26;100.00
8398;BME280;4236;54.504;9.588;2022-12-18T08:22:29;102980.91;;;-6.19;100.00
8398;BME280;4236;54.504;9.588;2022-12-18T08:24:57;102972.06;;;-6.11;100.00
8398;BME280;4236;54.504;9.588;2022-12-18T08:27:24;102974.56;;;-6.07;100.00
8398;BME280;4236;54.504;9.588;2022-12-18T08:29:57;102974.50;;;-6.04;100.00
8398;BME280;4236;54.504;9.588;2022-12-18T08:32:26;102970.09;;;-6.00;100.00
8398;BME280;4236;54.504;9.588;2022-12-18T08:34:54;102969.88;;;-5.93;100.00
8398;BME280;4236;54.504;9.588;2022-12-18T08:37:21;102958.47;;;-5.86;100.00
8398;BME280;4236;54.504;9.588;2022-12-18T08:39:49;102966.97;;;-5.82;100.00
8398;BME280;4236;54.504;9.588;2022-12-18T08:42:16;102960.81;;;-5.77;100.00
8398;BME280;4236;54.504;9.588;2022-12-18T08:45:03;102965.09;;;-5.76;100.00
8398;BME280;4236;54.504;9.588;2022-12-18T08:47:31;102955.47;;;-5.71;100.00
8398;BME280;4236;54.504;9.588;2022-12-18T08:49:58;102964.06;;;-5.69;100.00
8398;BME280;4236;54.504;9.588;2022-12-18T08:52:26;102962.25;;;-5.65;100.00
8398;BME280;4236;54.504;9.588;2022-12-18T08:54:54;102962.03;;;-5.57;100.00
8398;BME280;4236;54.504;9.588;2022-12-18T08:57:22;102965.41;;;-5.54;100.00
8398;BME280;4236;54.504;9.588;2022-12-18T08:59:49;102966.09;;;-5.47;100.00
8398;BME280;4236;54.504;9.588;2022-12-18T09:02:19;102972.81;;;-5.39;100.00
8398;BME280;4236;54.504;9.588;2022-12-18T09:04:47;102969.88;;;-5.27;100.00
8398;BME280;4236;54.504;9.588;2022-12-18T09:07:22;102973.09;;;-5.17;100.00
8398;BME280;4236;54.504;9.588;2022-12-18T09:09:50;102977.09;;;-5.06;100.00
8398;BME280;4236;54.504;9.588;2022-12-18T09:12:17;102971.13;;;-5.09;100.00
8398;BME280;4236;54.504;9.588;2022-12-18T09:14:46;102977.22;;;-5.10;100.00
8398;BME280;4236;54.504;9.588;2022-12-18T09:17:14;102970.00;;;-5.00;100.00
8398;BME280;4236;54.504;9.588;2022-12-18T09:19:43;102966.28;;;-4.92;100.00
8398;BME280;4236;54.504;9.588;2022-12-18T09:22:10;102965.25;;;-4.86;100.00
8398;BME280;4236;54.504;9.588;2022-12-18T09:24:39;102958.13;;;-4.80;100.00
8398;BME280;4236;54.504;9.588;2022-12-18T09:27:06;102960.72;;;-4.78;100.00
8398;BME280;4236;54.504;9.588;2022-12-18T09:29:34;102957.84;;;-4.69;100.00
8398;BME280;4236;54.504;9.588;2022-12-18T09:32:02;102961.84;;;-4.59;100.00
8398;BME280;4236;54.504;9.588;2022-12-18T09:34:29;102966.78;;;-4.50;100.00
8398;BME280;4236;54.504;9.588;2022-12-18T09:36:58;102965.94;;;-4.51;100.00
8398;BME280;4236;54.504;9.588;2022-12-18T09:39:26;102974.38;;;-4.42;100.00
8398;BME280;4236;54.504;9.588;2022-12-18T09:41:57;102981.16;;;-4.37;100.00
8398;BME280;4236;54.504;9.588;2022-12-18T09:44:27;102974.81;;;-4.28;100.00
8398;BME280;4236;54.504;9.588;2022-12-18T09:47:11;102981.28;;;-4.14;100.00
8398;BME280;4236;54.504;9.588;2022-12-18T09:49:42;102980.13;;;-4.04;100.00
8398;BME280;4236;54.504;9.588;2022-12-18T09:52:16;102985.72;;;-3.89;100.00
8398;BME280;4236;54.504;9.588;2022-12-18T09:54:49;102984.63;;;-3.82;100.00
8398;BME280;4236;54.504;9.588;2022-12-18T09:57:20;102984.53;;;-3.79;100.00
8398;BME280;4236;54.504;9.588;2022-12-18T09:59:53;102995.50;;;-3.70;100.00
8398;BME280;4236;54.504;9.588;2022-12-18T10:02:24;102996.03;;;-3.60;100.00
8398;BME280;4236;54.504;9.588;2022-12-18T10:05:03;102994.84;;;-3.50;100.00
8398;BME280;4236;54.504;9.588;2022-12-18T10:07:43;102998.38;;;-3.26;100.00
8398;BME280;4236;54.504;9.588;2022-12-18T10:10:23;103000.13;;;-3.02;100.00
8398;BME280;4236;54.504;9.588;2022-12-18T10:12:59;102998.84;;;-2.67;100.00
8398;BME280;4236;54.504;9.588;2022-12-18T10:15:34;102995.81;;;-2.34;100.00
8398;BME280;4236;54.504;9.588;2022-12-18T10:18:15;102990.28;;;-2.04;100.00
8398;BME280;4236;54.504;9.588;2022-12-18T10:20:49;103005.13;;;-1.83;100.00
8398;BME280;4236;54.504;9.588;2022-12-18T10:23:24;103007.84;;;-1.64;100.00
8398;BME280;4236;54.504;9.588;2022-12-18T10:25:59;103011.09;;;-1.59;100.00
8398;BME280;4236;54.504;9.588;2022-12-18T10:28:29;103013.66;;;-1.58;100.00
8398;BME280;4236;54.504;9.588;2022-12-18T10:30:58;103012.25;;;-1.45;100.00
8398;BME280;4236;54.504;9.588;2022-12-18T10:33:29;103000.78;;;-1.42;100.00
8398;BME280;4236;54.504;9.588;2022-12-18T10:35:58;103000.47;;;-1.35;100.00
8398;BME280;4236;54.504;9.588;2022-12-18T10:38:28;102996.94;;;-1.14;100.00
8398;BME280;4236;54.504;9.588;2022-12-18T10:40:58;102995.38;;;-1.18;100.00
8398;BME280;4236;54.504;9.588;2022-12-18T10:43:27;103000.91;;;-1.25;100.00
8398;BME280;4236;54.504;9.588;2022-12-18T10:46:12;102986.59;;;-1.17;100.00
8398;BME280;4236;54.504;9.588;2022-12-18T10:48:51;102992.94;;;-1.02;100.00
8398;BME280;4236;54.504;9.588;2022-12-18T10:51:22;102976.09;;;-0.96;100.00
8398;BME280;4236;54.504;9.588;2022-12-18T10:53:57;102982.97;;;-0.94;100.00
8398;BME280;4236;54.504;9.588;2022-12-18T10:56:29;102980.22;;;-0.91;100.00
8398;BME280;4236;54.504;9.588;2022-12-18T10:59:00;102969.91;;;-0.95;100.00
8398;BME280;4236;54.504;9.588;2022-12-18T11:01:45;102972.47;;;-0.94;100.00
8398;BME280;4236;54.504;9.588;2022-12-18T11:04:18;102975.06;;;-0.74;100.00
8398;BME280;4236;54.504;9.588;2022-12-18T11:06:55;102988.00;;;-0.71;100.00
8398;BME280;4236;54.504;9.588;2022-12-18T11:09:25;102980.09;;;-0.69;99.12
8398;BME280;4236;54.504;9.588;2022-12-18T11:11:55;102965.34;;;-0.72;98.43
8398;BME280;4236;54.504;9.588;2022-12-18T11:14:25;102969.81;;;-0.74;97.60
8398;BME280;4236;54.504;9.588;2022-12-18T11:16:55;102969.47;;;-0.66;100.00
8398;BME280;4236;54.504;9.588;2022-12-18T11:19:43;102958.28;;;-0.70;100.00
8398;BME280;4236;54.504;9.588;2022-12-18T11:22:19;102957.78;;;-0.78;100.00
8398;BME280;4236;54.504;9.588;2022-12-18T11:24:55;102971.94;;;-0.82;100.00
8398;BME280;4236;54.504;9.588;2022-12-18T11:27:48;102966.19;;;-0.90;100.00
8398;BME280;4236;54.504;9.588;2022-12-18T11:30:22;102971.63;;;-0.94;100.00
8398;BME280;4236;54.504;9.588;2022-12-18T11:32:54;102966.75;;;-1.02;100.00
8398;BME280;4236;54.504;9.588;2022-12-18T11:35:32;102975.19;;;-1.16;100.00
8398;BME280;4236;54.504;9.588;2022-12-18T11:38:06;102963.03;;;-1.37;97.97
8398;BME280;4236;54.504;9.588;2022-12-18T11:40:42;102961.09;;;-1.32;100.00
8398;BME280;4236;54.504;9.588;2022-12-18T11:43:15;102960.22;;;-1.32;100.00
8398;BME280;4236;54.504;9.588;2022-12-18T11:45:50;102965.19;;;-1.26;100.00
8398;BME280;4236;54.504;9.588;2022-12-18T11:48:23;102955.97;;;-1.15;100.00
8398;BME280;4236;54.504;9.588;2022-12-18T11:50:54;102945.56;;;-0.97;100.00
8398;BME280;4236;54.504;9.588;2022-12-18T11:53:23;102952.03;;;-0.86;100.00
8398;BME280;4236;54.504;9.588;2022-12-18T11:56:05;102960.03;;;-0.70;100.00
8398;BME280;4236;54.504;9.588;2022-12-18T11:58:46;102963.09;;;-0.61;100.00
8398;BME280;4236;54.504;9.588;2022-12-18T12:01:28;102940.38;;;-0.60;100.00
8398;BME280;4236;54.504;9.588;2022-12-18T12:04:30;102936.25;;;-0.66;100.00
8398;BME280;4236;54.504;9.588;2022-12-18T12:07:11;102935.47;;;-0.68;100.00
8398;BME280;4236;54.504;9.588;2022-12-18T12:09:48;102938.19;;;-0.69;100.00
8398;BME280;4236;54.504;9.588;2022-12-18T12:12:32;102942.69;;;-0.73;100.00
8398;BME280;4236;54.504;9.588;2022-12-18T12:15:23;102934.34;;;-0.81;99.17
8398;BME280;4236;54.504;9.588;2022-12-18T12:17:57;102930.16;;;-0.85;98.65
8398;BME280;4236;54.504;9.588;2022-12-18T12:20:44;102934.78;;;-0.90;97.91
8398;BME280;4236;54.504;9.588;2022-12-18T12:23:22;102935.06;;;-0.96;97.59
8398;BME280;4236;54.504;9.588;2022-12-18T12:25:58;102924.63;;;-0.97;99.71
8398;BME280;4236;54.504;9.588;2022-12-18T12:28:45;102915.19;;;-1.01;100.00
8398;BME280;4236;54.504;9.588;2022-12-18T12:31:24;102915.78;;;-1.14;99.10
8398;BME280;4236;54.504;9.588;2022-12-18T12:34:01;102906.00;;;-1.10;100.00
8398;BME280;4236;54.504;9.588;2022-12-18T12:36:38;102893.69;;;-1.08;100.00
8398;BME280;4236;54.504;9.588;2022-12-18T12:39:12;102896.47;;;-1.11;100.00
8398;BME280;4236;54.504;9.588;2022-12-18T12:41:42;102881.78;;;-1.15;100.00
8398;BME280;4236;54.504;9.588;2022-12-18T12:44:34;102870.69;;;-1.20;100.00
8398;BME280;4236;54.504;9.588;2022-12-18T12:47:12;102851.69;;;-1.25;100.00
8398;BME280;4236;54.504;9.588;2022-12-18T12:49:46;102842.03;;;-1.23;100.00
8398;BME280;4236;54.504;9.588;2022-12-18T12:52:21;102836.22;;;-1.30;100.00
8398;BME280;4236;54.504;9.588;2022-12-18T12:54:53;102838.25;;;-1.36;100.00
8398;BME280;4236;54.504;9.588;2022-12-18T12:57:24;102836.13;;;-1.47;100.00
8398;BME280;4236;54.504;9.588;2022-12-18T13:00:02;102850.75;;;-1.43;100.00
8398;BME280;4236;54.504;9.588;2022-12-18T13:02:34;102850.72;;;-1.41;100.00
8398;BME280;4236;54.504;9.588;2022-12-18T13:05:09;102863.31;;;-1.31;100.00
8398;BME280;4236;54.504;9.588;2022-12-18T13:07:41;102864.94;;;-1.28;100.00
8398;BME280;4236;54.504;9.588;2022-12-18T13:10:31;102867.94;;;-1.17;100.00
8398;BME280;4236;54.504;9.588;2022-12-18T13:13:01;102873.94;;;-1.15;100.00
8398;BME280;4236;54.504;9.588;2022-12-18T13:15:37;102866.09;;;-1.15;100.00
8398;BME280;4236;54.504;9.588;2022-12-18T13:18:17;102855.88;;;-1.21;100.00
8398;BME280;4236;54.504;9.588;2022-12-18T13:20:48;102857.75;;;-1.23;100.00
8398;BME280;4236;54.504;9.588;2022-12-18T13:23:30;102859.78;;;-1.30;100.00